createdAt,value
2017-05-26T00:03:33.980Z,9.82
2017-05-26T00:06:02.979Z,8.62
2017-05-26T00:08:31.989Z,9.34
2017-05-26T00:11:01.023Z,9.52
2017-05-26T00:13:30.026Z,11.58
2017-05-26T00:16:05.851Z,12.28
2017-05-26T00:19:04.640Z,11.02
2017-05-26T00:21:33.684Z,9.70
2017-05-26T00:24:02.691Z,12.48
2017-05-26T00:26:31.716Z,12.48
2017-05-26T00:29:06.827Z,9.64
2017-05-26T00:31:35.820Z,10.78
2017-05-26T00:34:04.844Z,14.30
2017-05-26T00:37:04.103Z,13.42
2017-05-26T00:43:03.765Z,11.68
2017-05-26T00:45:32.763Z,11.18
2017-05-26T00:48:05.670Z,12.70
2017-05-26T00:50:34.675Z,11.16
2017-05-26T00:53:03.672Z,11.08
2017-05-26T00:55:32.720Z,10.56
2017-05-26T00:58:01.740Z,12.28
2017-05-26T01:00:30.760Z,10.26
2017-05-26T01:02:59.817Z,12.48
2017-05-26T01:05:28.831Z,15.68
2017-05-26T01:08:06.036Z,11.80
2017-05-26T01:10:35.037Z,12.04
2017-05-26T01:13:04.030Z,12.00
2017-05-26T01:15:33.057Z,18.04
2017-05-26T01:18:02.064Z,13.26
2017-05-26T01:20:31.069Z,14.30
2017-05-26T01:26:01.686Z,19.42
2017-05-26T01:28:30.692Z,12.96
2017-05-26T01:31:06.905Z,11.48
2017-05-26T01:33:35.920Z,15.40
2017-05-26T01:39:05.010Z,8.76
2017-05-26T01:41:34.023Z,8.76
2017-05-26T01:44:03.099Z,9.92
2017-05-26T01:52:33.606Z,7.86
2017-05-26T01:55:06.562Z,6.00
2017-05-26T01:57:35.604Z,7.88
2017-05-26T02:00:04.635Z,7.98
2017-05-26T02:02:33.654Z,6.20
2017-05-26T02:05:02.782Z,5.82
2017-05-26T02:07:31.776Z,6.88
2017-05-26T02:10:00.773Z,7.50
2017-05-26T02:12:29.807Z,6.62
2017-05-26T02:14:58.800Z,6.66
2017-05-26T02:17:27.786Z,10.06
2017-05-26T02:20:06.762Z,12.24
2017-05-26T02:22:35.762Z,6.28
2017-05-26T02:25:04.753Z,7.00
2017-05-26T02:27:33.787Z,6.28
2017-05-26T02:30:02.769Z,6.54
2017-05-26T02:32:31.789Z,9.82
2017-05-26T02:35:00.914Z,6.30
2017-05-26T02:37:29.906Z,7.38
2017-05-26T02:39:58.898Z,7.52
2017-05-26T02:45:29.533Z,7.02
2017-05-26T02:48:06.005Z,6.84
2017-05-26T02:50:35.038Z,6.80
2017-05-26T02:53:04.029Z,7.56
2017-05-26T02:55:33.031Z,9.06
2017-05-26T02:58:02.086Z,7.18
2017-05-26T03:00:31.073Z,5.78
2017-05-26T03:03:00.074Z,7.40
2017-05-26T03:05:29.218Z,6.44
2017-05-26T03:07:58.213Z,7.34
2017-05-26T03:10:27.206Z,6.22
2017-05-26T03:12:56.269Z,6.96
2017-05-26T03:15:25.281Z,6.94
2017-05-26T03:17:54.289Z,11.88
2017-05-26T03:20:23.331Z,9.08
2017-05-26T03:22:52.333Z,6.78
2017-05-26T03:25:20.618Z,6.50
2017-05-26T03:28:06.333Z,7.86
2017-05-26T03:30:35.333Z,8.06
2017-05-26T03:33:04.349Z,7.82
2017-05-26T03:35:33.392Z,6.32
2017-05-26T03:38:06.139Z,8.18
2017-05-26T03:40:35.177Z,7.82
2017-05-26T03:43:04.167Z,7.66
2017-05-26T03:45:33.185Z,8.10
2017-05-26T03:48:02.329Z,9.44
2017-05-26T03:50:31.335Z,6.32
2017-05-26T03:53:00.416Z,6.38
2017-05-26T03:55:29.451Z,6.62
2017-05-26T03:58:05.304Z,8.24
2017-05-26T04:00:34.431Z,6.04
2017-05-26T04:03:03.435Z,7.50
2017-05-26T04:08:10.533Z,7.54
2017-05-26T04:10:39.543Z,7.26
2017-05-26T04:13:08.545Z,5.88
2017-05-26T04:15:37.586Z,6.52
2017-05-26T04:18:06.604Z,6.62
2017-05-26T04:20:35.605Z,7.54
2017-05-26T04:23:04.723Z,7.34
2017-05-26T04:25:33.725Z,6.82
2017-05-26T04:28:02.717Z,8.80
2017-05-26T04:30:31.765Z,10.40
2017-05-26T04:33:00.765Z,15.92
2017-05-26T04:35:29.774Z,9.02
2017-05-26T04:38:06.039Z,8.54
2017-05-26T04:40:35.035Z,17.84
2017-05-26T04:43:04.056Z,14.46
2017-05-26T04:45:33.099Z,12.12
2017-05-26T04:48:08.266Z,19.26
2017-05-26T04:50:37.312Z,25.72
2017-05-26T04:53:06.310Z,18.28
2017-05-26T04:55:35.313Z,24.08
2017-05-26T04:58:04.357Z,19.50
2017-05-26T05:00:33.364Z,19.02
2017-05-26T05:03:02.361Z,18.60
2017-05-26T05:05:31.425Z,14.22
2017-05-26T05:08:00.434Z,18.42
2017-05-26T05:10:29.438Z,20.60
2017-05-26T05:12:58.493Z,16.76
2017-05-26T05:15:27.500Z,16.32
2017-05-26T05:17:56.508Z,16.76
2017-05-26T05:23:26.818Z,14.32
2017-05-26T05:25:55.839Z,16.56
2017-05-26T05:28:24.854Z,18.40
2017-05-26T05:30:53.926Z,16.68
2017-05-26T05:33:22.935Z,18.16
2017-05-26T05:35:51.957Z,12.46
2017-05-26T05:38:20.996Z,12.92
2017-05-26T05:41:06.754Z,13.52
2017-05-26T05:43:35.805Z,14.94
2017-05-26T05:46:04.807Z,14.60
2017-05-26T05:48:41.489Z,12.04
2017-05-26T05:51:10.488Z,16.90
2017-05-26T05:53:39.500Z,23.84
2017-05-26T05:56:08.745Z,15.84
2017-05-26T05:58:37.746Z,14.84
2017-05-26T06:01:06.950Z,18.46
2017-05-26T06:03:36.022Z,13.42
2017-05-26T06:06:05.023Z,13.38
2017-05-26T06:08:34.028Z,14.82
2017-05-26T06:11:06.930Z,12.94
2017-05-26T06:13:35.946Z,13.30
2017-05-26T06:16:04.953Z,12.02
2017-05-26T06:18:34.019Z,13.74
2017-05-26T06:21:03.027Z,15.68
2017-05-26T06:29:33.869Z,11.74
2017-05-26T06:32:06.568Z,16.36
2017-05-26T06:35:04.336Z,11.06
2017-05-26T06:38:03.027Z,12.62
2017-05-26T06:41:04.947Z,14.64
2017-05-26T06:47:04.489Z,13.64
2017-05-26T06:53:04.337Z,15.02
2017-05-26T06:55:33.340Z,20.56
2017-05-26T06:58:06.241Z,13.14
2017-05-26T07:01:05.672Z,12.82
2017-05-26T07:06:12.785Z,13.62
2017-05-26T07:09:05.552Z,13.66
2017-05-26T07:14:12.620Z,15.02
2017-05-26T07:17:05.266Z,13.76
2017-05-26T07:25:07.278Z,11.74
2017-05-26T07:27:36.276Z,11.46
2017-05-26T07:30:05.317Z,11.32
2017-05-26T07:32:34.326Z,9.72
2017-05-26T07:35:03.384Z,11.34
2017-05-26T07:43:34.382Z,13.42
2017-05-26T07:46:03.375Z,8.22
2017-05-26T07:48:32.418Z,10.00
2017-05-26T07:51:01.414Z,9.80
2017-05-26T07:53:30.398Z,7.78
2017-05-26T07:56:05.954Z,7.94
2017-05-26T07:58:34.943Z,7.72
2017-05-26T08:01:03.939Z,11.84
2017-05-26T08:06:34.218Z,6.90
2017-05-26T08:09:06.974Z,9.02
2017-05-26T08:11:36.020Z,8.50
2017-05-26T08:14:05.003Z,9.32
2017-05-26T08:19:34.935Z,9.74
2017-05-26T08:22:03.939Z,7.22
2017-05-26T08:24:32.923Z,5.64
2017-05-26T08:27:01.970Z,11.12
2017-05-26T08:29:30.970Z,11.56
2017-05-26T08:32:05.754Z,7.16
2017-05-26T08:34:34.795Z,9.42
2017-05-26T08:37:07.399Z,7.78
2017-05-26T08:39:36.459Z,11.60
2017-05-26T08:42:05.462Z,7.46
2017-05-26T08:44:34.493Z,12.88
2017-05-26T08:47:03.522Z,9.68
2017-05-26T08:52:52.999Z,8.46
2017-05-26T08:55:21.993Z,10.28
2017-05-26T08:58:05.682Z,9.30
2017-05-26T09:00:34.722Z,8.38
2017-05-26T09:03:03.860Z,5.70
2017-05-26T09:05:32.916Z,9.36
2017-05-26T09:08:01.905Z,12.72
2017-05-26T09:10:30.896Z,8.90
2017-05-26T09:12:59.926Z,8.60
2017-05-26T09:15:28.923Z,6.38
2017-05-26T09:18:05.979Z,7.22
2017-05-26T09:20:34.970Z,8.48
2017-05-26T09:23:03.987Z,6.40
2017-05-26T09:25:33.031Z,9.22
2017-05-26T09:28:08.108Z,10.30
2017-05-26T09:30:37.124Z,9.94
2017-05-26T09:33:06.115Z,8.68
2017-05-26T09:35:35.163Z,7.08
2017-05-26T09:38:05.105Z,7.98
2017-05-26T09:41:04.661Z,9.46
2017-05-26T09:43:33.684Z,6.66
2017-05-26T09:46:02.673Z,7.80
2017-05-26T09:48:31.691Z,6.82
2017-05-26T09:51:00.738Z,5.86
2017-05-26T09:53:29.732Z,8.36
2017-05-26T09:56:06.295Z,7.82
2017-05-26T09:58:35.301Z,7.10
2017-05-26T10:01:04.351Z,6.50
2017-05-26T10:06:34.501Z,13.28
2017-05-26T10:09:03.499Z,8.38
2017-05-26T10:11:32.546Z,8.32
2017-05-26T10:14:07.282Z,6.18
2017-05-26T10:16:55.570Z,7.64
2017-05-26T10:19:24.554Z,6.84
2017-05-26T10:21:53.594Z,6.84
2017-05-26T10:27:23.752Z,5.82
2017-05-26T10:29:52.751Z,7.54
2017-05-26T10:32:21.819Z,7.88
2017-05-26T10:34:50.856Z,7.62
2017-05-26T10:37:20.238Z,7.24
2017-05-26T10:39:49.278Z,6.78
2017-05-26T10:42:18.288Z,8.30
2017-05-26T10:44:47.360Z,10.08
2017-05-26T10:47:16.402Z,6.68
2017-05-26T10:49:45.413Z,8.48
2017-05-26T10:52:14.458Z,13.30
2017-05-26T10:54:42.801Z,8.42
2017-05-26T10:57:11.834Z,7.64
2017-05-26T10:59:40.849Z,11.42
2017-05-26T11:02:09.849Z,9.62
2017-05-26T11:05:05.401Z,5.70
2017-05-26T11:07:34.438Z,7.70
2017-05-26T11:10:07.026Z,8.14
2017-05-26T11:12:36.065Z,6.90
2017-05-26T11:15:05.057Z,9.00
2017-05-26T11:20:34.974Z,8.22
2017-05-26T11:23:07.787Z,10.24
2017-05-26T11:25:36.785Z,10.24
2017-05-26T11:28:05.785Z,7.84
2017-05-26T11:30:34.839Z,8.14
2017-05-26T11:33:03.876Z,6.34
2017-05-26T11:35:32.918Z,6.42
2017-05-26T11:38:05.289Z,8.16
2017-05-26T11:41:04.576Z,4.90
2017-05-26T11:43:33.620Z,4.90
2017-05-26T11:46:02.637Z,7.50
2017-05-26T11:48:31.708Z,6.56
2017-05-26T11:51:00.710Z,6.50
2017-05-26T11:53:29.751Z,6.84
2017-05-26T11:55:58.767Z,9.34
2017-05-26T11:58:27.752Z,7.94
2017-05-26T12:00:56.795Z,9.54
2017-05-26T12:03:25.823Z,5.78
2017-05-26T12:06:07.771Z,6.38
2017-05-26T12:08:36.790Z,4.74
2017-05-26T12:11:05.831Z,6.74
2017-05-26T12:13:34.860Z,8.46
2017-05-26T12:16:03.870Z,7.04
2017-05-26T12:18:32.928Z,6.28
2017-05-26T12:21:08.474Z,10.96
2017-05-26T12:23:37.531Z,6.70
2017-05-26T12:26:06.534Z,6.56
2017-05-26T12:28:42.710Z,6.30
2017-05-26T12:34:12.303Z,5.20
2017-05-26T12:36:41.327Z,6.38
2017-05-26T12:39:10.324Z,5.20
2017-05-26T12:41:39.377Z,6.40
2017-05-26T12:44:08.413Z,4.74
2017-05-26T12:46:37.506Z,11.08
2017-05-26T12:49:33.075Z,6.68
2017-05-26T12:52:02.112Z,9.62
2017-05-26T12:54:31.156Z,7.38
2017-05-26T12:57:00.198Z,5.54
2017-05-26T12:59:29.252Z,10.54
2017-05-26T13:02:05.764Z,9.46
2017-05-26T13:05:04.500Z,6.58
2017-05-26T13:07:33.497Z,9.02
2017-05-26T13:10:02.552Z,7.20
2017-05-26T13:12:31.632Z,6.70
2017-05-26T13:15:00.668Z,5.46
2017-05-26T13:18:04.359Z,5.64
2017-05-26T13:20:33.376Z,7.40
2017-05-26T13:23:02.407Z,7.12
2017-05-26T13:25:31.450Z,8.74
2017-05-26T13:28:00.462Z,6.36
2017-05-26T13:30:29.524Z,9.30
2017-05-26T13:32:58.529Z,9.88
2017-05-26T13:35:27.522Z,9.40
2017-05-26T13:37:56.560Z,7.22
2017-05-26T13:43:26.286Z,10.04
2017-05-26T13:45:55.286Z,7.58
2017-05-26T13:48:24.361Z,5.76
2017-05-26T13:50:53.364Z,8.60
2017-05-26T13:53:22.391Z,6.16
2017-05-26T13:56:05.927Z,12.66
2017-05-26T13:58:42.956Z,6.30
2017-05-26T14:01:12.010Z,12.36
2017-05-26T14:03:41.029Z,7.20
2017-05-26T14:06:10.154Z,13.96
2017-05-26T14:08:39.198Z,10.78
2017-05-26T14:11:08.252Z,7.60
2017-05-26T14:13:37.261Z,10.06
2017-05-26T14:16:06.327Z,8.46
2017-05-26T14:18:43.195Z,8.74
2017-05-26T14:21:12.199Z,10.92
2017-05-26T14:23:44.913Z,6.10
2017-05-26T14:29:15.487Z,6.74
2017-05-26T14:31:44.523Z,4.92
2017-05-26T14:34:13.529Z,7.30
2017-05-26T14:36:42.609Z,9.96
2017-05-26T14:39:11.623Z,7.78
2017-05-26T14:41:40.680Z,9.08
2017-05-26T14:44:09.681Z,8.30
2017-05-26T14:46:38.690Z,6.96
2017-05-26T14:49:07.713Z,5.62
2017-05-26T14:52:05.238Z,7.26
2017-05-26T14:54:34.272Z,6.78
2017-05-26T14:57:03.296Z,7.22
2017-05-26T14:59:32.325Z,5.06
2017-05-26T15:02:01.356Z,6.20
2017-05-26T15:04:30.389Z,11.88
2017-05-26T15:06:59.476Z,5.12
2017-05-26T15:09:28.488Z,6.84
2017-05-26T15:11:57.496Z,6.36
2017-05-26T15:14:26.565Z,6.40
2017-05-26T15:17:08.451Z,6.00
2017-05-26T15:19:37.514Z,9.58
2017-05-26T15:24:45.061Z,5.82
2017-05-26T15:27:14.102Z,6.76
2017-05-26T15:29:43.109Z,5.76
2017-05-26T15:32:12.111Z,6.64
2017-05-26T15:34:41.158Z,7.40
2017-05-26T15:37:10.185Z,12.32
2017-05-26T15:39:39.192Z,9.88
2017-05-26T15:42:08.213Z,5.96
2017-05-26T15:44:37.224Z,6.28
2017-05-26T15:47:06.253Z,8.64
2017-05-26T15:50:05.416Z,5.32
2017-05-26T15:52:53.715Z,8.96
2017-05-26T15:55:22.707Z,6.58
2017-05-26T15:57:51.748Z,5.98
2017-05-26T16:00:20.737Z,7.20
2017-05-26T16:02:49.768Z,5.96
2017-05-26T16:05:18.773Z,8.32
2017-05-26T16:08:04.455Z,8.14
2017-05-26T16:13:34.728Z,6.98
2017-05-26T16:16:07.406Z,5.70
2017-05-26T16:18:43.819Z,5.42
2017-05-26T16:21:12.838Z,9.22
2017-05-26T16:24:06.019Z,5.64
2017-05-26T16:27:05.426Z,7.82
2017-05-26T16:29:34.452Z,5.30
2017-05-26T16:32:07.304Z,5.44
2017-05-26T16:35:04.703Z,7.52
2017-05-26T16:37:33.701Z,6.94
2017-05-26T16:40:08.473Z,8.58
2017-05-26T16:42:54.071Z,5.62
2017-05-26T16:45:23.105Z,5.64
2017-05-26T16:48:05.717Z,5.82
2017-05-26T16:51:04.785Z,5.64
2017-05-26T16:53:33.786Z,6.48
2017-05-26T16:56:08.508Z,4.70
2017-05-26T16:58:44.065Z,6.62
2017-05-26T17:01:13.094Z,5.00
2017-05-26T17:04:05.260Z,6.00
2017-05-26T17:07:04.616Z,6.90
2017-05-26T17:09:33.677Z,7.66
2017-05-26T17:12:06.554Z,4.78
2017-05-26T17:20:15.246Z,5.94
2017-05-26T17:22:54.428Z,7.08
2017-05-26T17:25:23.431Z,8.04
2017-05-26T17:28:05.747Z,6.10
2017-05-26T17:31:04.719Z,6.98
2017-05-26T17:33:33.739Z,6.74
2017-05-26T17:36:02.753Z,6.50
2017-05-26T17:41:33.046Z,8.08
2017-05-26T17:44:08.597Z,6.16
2017-05-26T17:47:05.231Z,8.04
2017-05-26T17:53:04.645Z,6.70
2017-05-26T18:01:35.349Z,6.02
2017-05-26T18:04:08.033Z,6.66
2017-05-26T18:07:05.579Z,6.08
2017-05-26T18:12:35.180Z,6.26
2017-05-26T18:15:04.197Z,6.32
2017-05-26T18:17:33.208Z,8.46
2017-05-26T18:20:02.252Z,6.96
2017-05-26T18:25:31.873Z,8.84
2017-05-26T18:28:00.871Z,7.02
2017-05-26T18:30:29.874Z,8.58
2017-05-26T18:32:58.915Z,7.00
2017-05-26T18:35:27.907Z,8.94
2017-05-26T18:38:07.427Z,6.46
2017-05-26T18:40:36.458Z,5.48
2017-05-26T18:43:05.497Z,8.80
2017-05-26T18:46:04.646Z,7.62
2017-05-26T18:51:48.939Z,7.52
2017-05-26T18:54:17.931Z,8.46
2017-05-26T18:56:46.946Z,13.60
2017-05-26T19:02:16.589Z,9.40
2017-05-26T19:05:05.571Z,9.34
2017-05-26T19:07:34.701Z,10.68
2017-05-26T19:10:06.800Z,10.90
2017-05-26T19:13:06.310Z,8.80
2017-05-26T19:16:07.133Z,10.44
2017-05-26T19:19:06.255Z,12.36
2017-05-26T19:21:35.264Z,8.36
2017-05-26T19:24:04.272Z,12.18
2017-05-26T19:36:02.655Z,7.68
2017-05-26T19:41:33.009Z,11.82
2017-05-26T19:47:08.605Z,10.18
2017-05-26T19:50:05.291Z,13.22
2017-05-26T19:55:35.193Z,11.76
2017-05-26T19:58:04.235Z,13.24
2017-05-26T20:03:33.152Z,13.20
2017-05-26T20:06:07.913Z,9.30
2017-05-26T20:09:06.632Z,9.62
2017-05-26T20:11:35.679Z,10.32
2017-05-26T20:14:04.724Z,11.64
2017-05-26T20:19:34.902Z,10.80
2017-05-26T20:22:03.919Z,10.40
2017-05-26T20:24:32.927Z,10.42
2017-05-26T20:27:01.968Z,13.24
2017-05-26T20:35:32.448Z,10.24
2017-05-26T20:38:01.487Z,10.50
2017-05-26T20:40:30.518Z,10.96
2017-05-26T20:42:59.548Z,13.92
2017-05-26T20:45:28.548Z,11.86
2017-05-26T20:47:57.568Z,12.82
2017-05-26T20:50:26.601Z,11.56
2017-05-26T20:52:55.614Z,12.12
2017-05-26T20:55:24.657Z,12.42
2017-05-26T20:57:53.659Z,11.84
2017-05-26T21:00:22.666Z,11.26
2017-05-26T21:02:51.715Z,10.16
2017-05-26T21:05:20.718Z,10.66
2017-05-26T21:07:49.745Z,10.22
2017-05-26T21:10:18.747Z,7.34
2017-05-26T21:12:47.786Z,8.26
2017-05-26T21:15:16.791Z,8.52
2017-05-26T21:17:45.790Z,10.10
2017-05-26T21:23:15.690Z,13.20
2017-05-26T21:26:05.750Z,11.26
2017-05-26T21:28:34.855Z,10.88
2017-05-26T21:31:03.919Z,13.52
2017-05-26T21:33:32.937Z,10.66
2017-05-26T21:42:06.731Z,10.22
2017-05-26T21:44:35.715Z,7.62
2017-05-26T21:47:04.761Z,6.68
2017-05-26T21:49:33.763Z,6.40
2017-05-26T21:52:02.765Z,6.72
2017-05-26T21:54:31.806Z,10.02
2017-05-26T21:57:00.802Z,7.92
2017-05-26T21:59:29.800Z,7.80
2017-05-26T22:01:59.180Z,6.90
2017-05-26T22:04:28.207Z,11.50
2017-05-26T22:07:07.672Z,10.82
2017-05-26T22:09:36.673Z,12.42
2017-05-26T22:12:05.688Z,11.86
2017-05-26T22:14:34.735Z,11.44
2017-05-26T22:17:03.726Z,12.10
2017-05-26T22:19:32.783Z,12.86
2017-05-26T22:22:08.291Z,11.42
2017-05-26T22:25:05.039Z,12.26
2017-05-26T22:27:34.096Z,10.10
2017-05-26T22:30:03.090Z,12.06
2017-05-26T22:32:32.089Z,11.80
2017-05-26T22:35:07.468Z,12.94
2017-05-26T22:37:36.481Z,11.82
2017-05-26T22:40:05.479Z,11.14
2017-05-26T22:42:34.514Z,14.64
2017-05-26T22:45:03.538Z,12.86
2017-05-26T22:47:32.584Z,13.22
2017-05-26T22:50:01.630Z,15.68
2017-05-26T22:52:30.631Z,11.30
2017-05-26T22:54:59.638Z,8.26
2017-05-26T22:57:28.709Z,14.06
2017-05-26T22:59:57.711Z,9.10
2017-05-26T23:02:26.791Z,8.44
2017-05-26T23:04:55.789Z,11.80
2017-05-26T23:07:24.790Z,8.36
2017-05-26T23:09:53.847Z,9.28
2017-05-26T23:12:22.090Z,9.16
2017-05-26T23:14:51.085Z,7.00
2017-05-26T23:17:20.142Z,6.22
2017-05-26T23:22:28.432Z,7.86
2017-05-26T23:25:07.147Z,11.68
2017-05-26T23:27:36.195Z,7.54
2017-05-26T23:30:06.911Z,9.12
2017-05-26T23:32:36.000Z,8.04
2017-05-26T23:35:05.010Z,10.78
2017-05-26T23:37:34.020Z,11.38
2017-05-26T23:40:09.159Z,7.40
2017-05-26T23:42:38.162Z,11.98
2017-05-26T23:45:07.182Z,14.78
2017-05-26T23:47:36.227Z,7.54
2017-05-26T23:50:05.306Z,10.22
2017-05-26T23:52:34.311Z,7.98
2017-05-26T23:55:03.359Z,8.68
2017-05-26T23:57:32.373Z,6.64
